Time;durP1;ratioP1;P1;durP2;ratioP2;P2;SDS_P1;SDS_P2;PMS_P1;PMS_P2;Temp;Humidity;BMP_temperature;BMP_pressure;BME280_temperature;BME280_humidity;BME280_pressure;Samples;Min_cycle;Max_cycle;Signal;HPM_P1;HPM_P2
2022/09/05 00:02:52;;;;;;;2.08;1.30;;;;;;;-142.37;100.00;59669.53;4973766;28;20030;-67
2022/09/05 00:05:42;;;;;;;3.22;1.70;;;;;;;-142.37;100.00;59669.53;4972784;28;20117;-66
2022/09/05 00:08:16;;;;;;;2.67;1.02;;;;;;;-142.37;100.00;59669.53;4972981;28;20035;-66
2022/09/05 00:10:54;;;;;;;1.73;1.15;;;;;;;-142.37;100.00;59669.53;4971704;28;20427;-66
2022/09/05 00:13:29;;;;;;;1.63;0.90;;;;;;;-142.37;100.00;59669.53;4973134;28;20041;-66
2022/09/05 00:16:16;;;;;;;2.65;1.00;;;;;;;-142.37;100.00;59669.53;4955926;28;20118;-67
2022/09/05 00:19:04;;;;;;;1.25;1.15;;;;;;;-142.37;100.00;59669.53;4971809;28;20403;-65
2022/09/05 00:21:38;;;;;;;1.63;1.00;;;;;;;-142.37;100.00;59669.53;4973911;28;20039;-67
2022/09/05 00:24:24;;;;;;;1.10;1.00;;;;;;;-142.37;100.00;59669.53;4976737;28;20035;-66
2022/09/05 00:27:14;;;;;;;5.35;0.90;;;;;;;-142.37;100.00;59669.53;4976650;28;20208;-66
2022/09/05 00:30:12;;;;;;;1.65;1.00;;;;;;;-142.37;100.00;59669.53;4976540;28;20094;-66
2022/09/05 00:33:00;;;;;;;3.15;1.25;;;;;;;-142.37;100.00;59669.53;4976604;28;20077;-67
2022/09/05 00:35:56;;;;;;;2.17;1.00;;;;;;;-142.37;100.00;59669.53;4959117;28;20081;-67
2022/09/05 00:38:25;;;;;;;1.23;0.95;;;;;;;-142.37;100.00;59669.53;4975161;28;20082;-67
2022/09/05 00:40:56;;;;;;;7.07;1.45;;;;;;;-142.37;100.00;59669.53;4959119;28;20022;-65
2022/09/05 00:43:32;;;;;;;2.05;1.00;;;;;;;-142.37;100.00;59669.53;4976637;28;20091;-66
2022/09/05 00:46:09;;;;;;;1.42;1.15;;;;;;;-142.37;100.00;59669.53;4976463;28;20035;-66
2022/09/05 00:48:40;;;;;;;2.88;1.30;;;;;;;-142.37;100.00;59669.53;4958918;28;20035;-66
2022/09/05 00:51:35;;;;;;;2.10;1.25;;;;;;;-142.37;100.00;59669.53;4974862;28;20031;-66
2022/09/05 00:54:22;;;;;;;1.55;1.45;;;;;;;-142.37;100.00;59669.53;4958767;28;20030;-66
2022/09/05 00:57:21;;;;;;;1.65;1.40;;;;;;;-142.37;100.00;59669.53;4976089;28;20093;-66
2022/09/05 01:00:09;;;;;;;3.58;1.52;;;;;;;-142.37;100.00;59669.53;4975004;28;20035;-66
2022/09/05 01:03:08;;;;;;;6.35;1.52;;;;;;;-142.37;100.00;59669.53;4976351;28;20047;-65
2022/09/05 01:05:39;;;;;;;4.82;1.13;;;;;;;-142.37;100.00;59669.53;4976130;28;20041;-66
2022/09/05 01:08:42;;;;;;;4.75;1.35;;;;;;;-142.37;100.00;59669.53;4976401;28;20027;-66
2022/09/05 01:11:35;;;;;;;4.85;1.38;;;;;;;-142.37;100.00;59669.53;4974543;28;20038;-66
2022/09/05 01:14:16;;;;;;;3.03;1.25;;;;;;;-142.37;100.00;59669.53;4974775;28;20033;-68
2022/09/05 01:17:18;;;;;;;2.47;1.15;;;;;;;-142.37;100.00;59669.53;4958638;28;20035;-66
2022/09/05 01:20:09;;;;;;;2.25;1.48;;;;;;;-142.37;100.00;59669.53;4975913;28;20031;-66
2022/09/05 01:23:09;;;;;;;1.55;1.00;;;;;;;-142.37;100.00;59669.53;4958458;28;20027;-65
2022/09/05 01:25:50;;;;;;;1.55;1.00;;;;;;;-142.37;100.00;59669.53;4943370;28;20495;-66
2022/09/05 01:28:47;;;;;;;1.48;1.20;;;;;;;-142.37;100.00;59669.53;4975763;28;20058;-66
2022/09/05 01:32:14;;;;;;;1.52;1.05;;;;;;;-142.37;100.00;59669.53;4975723;28;20114;-65
2022/09/05 01:34:48;;;;;;;;;;;;;;;-142.37;100.00;59669.53;4935365;29;20032;-66
2022/09/05 01:37:24;;;;;;;1.45;0.95;;;;;;;-142.37;100.00;59669.53;4934862;29;19937;-65
2022/09/05 01:40:02;;;;;;;3.25;1.13;;;;;;;-142.37;100.00;59669.53;4948350;28;20122;-66
2022/09/05 01:42:37;;;;;;;2.58;0.82;;;;;;;-142.37;100.00;59669.53;4975582;28;20027;-66
2022/09/05 01:45:15;;;;;;;1.75;0.80;;;;;;;-142.37;100.00;59669.53;4975096;28;20038;-66
2022/09/05 01:48:03;;;;;;;6.15;1.38;;;;;;;-142.37;100.00;59669.53;4957984;28;20062;-65
2022/09/05 01:50:45;;;;;;;1.55;0.93;;;;;;;-142.37;100.00;59669.53;4975251;28;20034;-66
2022/09/05 01:53:24;;;;;;;1.02;0.93;;;;;;;-142.37;100.00;59669.53;4973949;28;20498;-66
2022/09/05 01:56:14;;;;;;;1.63;0.95;;;;;;;-142.37;100.00;59669.53;4975301;28;20039;-67
2022/09/05 01:59:01;;;;;;;1.38;1.05;;;;;;;-142.37;100.00;59669.53;4957793;28;20041;-66
2022/09/05 02:01:39;;;;;;;0.90;0.70;;;;;;;-142.37;100.00;59669.53;4957038;28;20035;-67
2022/09/05 02:04:28;;;;;;;1.77;1.20;;;;;;;-142.37;100.00;59669.53;4957791;28;20043;-66
2022/09/05 02:07:13;;;;;;;3.67;1.10;;;;;;;-142.37;100.00;59669.53;4957851;28;20365;-65
2022/09/05 02:10:03;;;;;;;1.42;1.02;;;;;;;-142.37;100.00;59669.53;4957537;28;20027;-66
2022/09/05 02:12:44;;;;;;;1.77;1.23;;;;;;;-142.37;100.00;59669.53;4974884;28;20126;-66
2022/09/05 02:15:24;;;;;;;1.63;1.15;;;;;;;-142.37;100.00;59669.53;4974706;28;20097;-66
2022/09/05 02:17:56;;;;;;;3.55;0.95;;;;;;;-142.37;100.00;59669.53;4974565;28;20038;-66
2022/09/05 02:21:01;;;;;;;4.00;1.30;;;;;;;-142.37;100.00;59669.53;4974733;28;20062;-66
2022/09/05 02:23:38;;;;;;;3.17;1.20;;;;;;;-142.37;100.00;59669.53;4937856;28;20394;-66
2022/09/05 02:26:28;;;;;;;1.88;1.08;;;;;;;-142.37;100.00;59669.53;4973236;28;20039;-67
2022/09/05 02:29:10;;;;;;;2.90;1.13;;;;;;;-142.37;100.00;59669.53;4957244;28;20042;-66
2022/09/05 02:31:38;;;;;;;2.13;1.13;;;;;;;-142.37;100.00;59669.53;4957491;28;20135;-66
2022/09/05 02:34:11;;;;;;;1.83;1.02;;;;;;;-142.37;100.00;59669.53;4974457;28;20498;-66
2022/09/05 02:37:15;;;;;;;1.48;1.10;;;;;;;-142.37;100.00;59669.53;4973086;28;20484;-65
2022/09/05 02:40:31;;;;;;;1.30;1.15;;;;;;;-142.37;100.00;59669.53;4974559;28;20399;-67
2022/09/05 02:43:18;;;;;;;1.02;0.90;;;;;;;-142.37;100.00;59669.53;4970733;28;20050;-69
2022/09/05 02:46:05;;;;;;;2.63;1.00;;;;;;;-142.37;100.00;59669.53;4974339;28;20096;-66
2022/09/05 02:49:10;;;;;;;1.98;0.52;;;;;;;-142.37;100.00;59669.53;4957283;28;20050;-66
2022/09/05 02:51:56;;;;;;;1.70;1.25;;;;;;;-142.37;100.00;59669.53;4955123;28;20137;-67
2022/09/05 02:54:27;;;;;;;2.30;1.10;;;;;;;-142.37;100.00;59669.53;4974176;28;20039;-65
2022/09/05 02:56:59;;;;;;;1.73;0.80;;;;;;;-142.37;100.00;59669.53;4956826;28;20066;-66
2022/09/05 02:59:36;;;;;;;1.80;1.10;;;;;;;-142.37;100.00;59669.53;4972644;28;20027;-65
2022/09/05 03:02:11;;;;;;;2.95;1.20;;;;;;;-142.37;100.00;59669.53;4972989;28;20031;-66
2022/09/05 03:04:41;;;;;;;1.35;1.02;;;;;;;-142.37;100.00;59669.53;4973979;28;20522;-65
2022/09/05 03:07:40;;;;;;;2.67;1.02;;;;;;;-142.37;100.00;59669.53;4973983;28;20065;-66
2022/09/05 03:10:27;;;;;;;1.92;1.33;;;;;;;-142.37;100.00;59669.53;4972750;28;20566;-66
2022/09/05 03:13:16;;;;;;;4.75;1.55;;;;;;;-142.37;100.00;59669.53;4972759;28;20019;-66
2022/09/05 03:16:00;;;;;;;2.40;1.42;;;;;;;-142.37;100.00;59669.53;4956661;28;20099;-67
2022/09/05 03:18:38;;;;;;;1.25;1.00;;;;;;;-142.37;100.00;59669.53;4956421;28;20039;-68
2022/09/05 03:21:34;;;;;;;1.48;1.10;;;;;;;-142.37;100.00;59669.53;4973639;28;20035;-67
2022/09/05 03:24:18;;;;;;;2.08;1.05;;;;;;;-142.37;100.00;59669.53;4973458;28;20034;-67
2022/09/05 03:26:46;;;;;;;4.05;1.42;;;;;;;-142.37;100.00;59669.53;4973707;28;20033;-68
2022/09/05 03:29:30;;;;;;;3.67;1.70;;;;;;;-142.37;100.00;59669.53;4973357;28;20487;-67
2022/09/05 03:32:12;;;;;;;3.00;1.05;;;;;;;-142.37;100.00;59669.53;4973576;28;20487;-67
2022/09/05 03:35:09;;;;;;;1.58;1.40;;;;;;;-142.37;100.00;59669.53;4956203;28;20046;-66
2022/09/05 03:38:13;;;;;;;6.55;1.48;;;;;;;-142.37;100.00;59669.53;4972621;28;20395;-67
2022/09/05 03:40:54;;;;;;;2.85;1.10;;;;;;;-142.37;100.00;59669.53;4947344;28;20488;-67
2022/09/05 03:43:31;;;;;;;4.28;1.10;;;;;;;-142.37;100.00;59669.53;4972020;28;20029;-66
2022/09/05 03:46:26;;;;;;;3.90;1.30;;;;;;;-142.37;100.00;59669.53;4973537;28;20031;-66
2022/09/05 03:48:59;;;;;;;4.57;1.48;;;;;;;-142.37;100.00;59669.53;4955994;28;20034;-67
2022/09/05 03:51:40;;;;;;;5.03;1.08;;;;;;;-142.37;100.00;59669.53;4956014;28;20443;-68
2022/09/05 03:54:18;;;;;;;4.95;1.25;;;;;;;-142.37;100.00;59669.53;4972126;28;20384;-67
2022/09/05 03:57:10;;;;;;;6.65;1.58;;;;;;;-142.37;100.00;59669.53;4976145;28;20110;-67
2022/09/05 03:59:52;;;;;;;2.97;1.20;;;;;;;-142.37;100.00;59669.53;4959902;28;20051;-66
2022/09/05 04:02:23;;;;;;;2.53;1.30;;;;;;;-142.37;100.00;59669.53;4959720;28;20037;-68
2022/09/05 04:04:54;;;;;;;2.15;1.38;;;;;;;-142.37;100.00;59669.53;4977354;28;20035;-67
2022/09/05 04:07:29;;;;;;;5.93;1.45;;;;;;;-142.37;100.00;59669.53;4977024;28;20031;-67
2022/09/05 04:10:03;;;;;;;4.25;1.17;;;;;;;-142.37;100.00;59669.53;4959888;28;20031;-67
2022/09/05 04:12:31;;;;;;;4.60;1.15;;;;;;;-142.37;100.00;59669.53;4977045;28;20035;-67
2022/09/05 04:15:16;;;;;;;3.25;1.25;;;;;;;-142.37;100.00;59669.53;4975703;28;20039;-68
2022/09/05 04:17:47;;;;;;;3.75;1.40;;;;;;;-142.37;100.00;59669.53;4976764;28;20027;-68
2022/09/05 04:20:26;;;;;;;4.55;1.17;;;;;;;-142.37;100.00;59669.53;4975170;28;20069;-67
2022/09/05 04:23:26;;;;;;;1.67;0.90;;;;;;;-142.37;100.00;59669.53;4976429;28;20454;-67
2022/09/05 04:26:10;;;;;;;2.00;1.00;;;;;;;-142.37;100.00;59669.53;4976309;28;20605;-66
2022/09/05 04:29:02;;;;;;;2.97;1.00;;;;;;;-142.37;100.00;59669.53;4976422;28;20030;-68
2022/09/05 04:31:42;;;;;;;1.08;0.95;;;;;;;-142.37;100.00;59669.53;4975452;28;20038;-68
2022/09/05 04:34:30;;;;;;;2.25;0.95;;;;;;;-142.37;100.00;59669.53;4973864;28;20034;-66
2022/09/05 04:37:03;;;;;;;1.30;0.93;;;;;;;-142.37;100.00;59669.53;4967056;28;20038;-72
2022/09/05 04:39:32;;;;;;;3.08;1.65;;;;;;;-142.37;100.00;59669.53;4975148;28;20044;-67
2022/09/05 04:42:04;;;;;;;3.80;1.02;;;;;;;-142.37;100.00;59669.53;4975413;28;20486;-68
2022/09/05 04:44:35;;;;;;;3.28;0.80;;;;;;;-142.37;100.00;59669.53;4974707;28;20035;-69
2022/09/05 04:47:15;;;;;;;1.10;0.90;;;;;;;-142.37;100.00;59669.53;4974937;28;20038;-67
2022/09/05 04:49:45;;;;;;;0.95;0.75;;;;;;;-142.37;100.00;59669.53;4974649;28;20403;-68
2022/09/05 04:52:31;;;;;;;5.07;1.05;;;;;;;-142.37;100.00;59669.53;4957433;28;20035;-68
2022/09/05 04:55:10;;;;;;;2.10;1.73;;;;;;;-142.37;100.00;59669.53;4957218;28;20026;-71
2022/09/05 04:58:04;;;;;;;6.47;1.13;;;;;;;-142.37;100.00;59669.53;4974603;28;20396;-68
2022/09/05 05:00:38;;;;;;;7.38;2.20;;;;;;;-142.37;100.00;59669.53;4974214;28;20058;-68
2022/09/05 05:03:16;;;;;;;5.05;1.30;;;;;;;-142.37;100.00;59669.53;4957277;28;20487;-68
2022/09/05 05:05:48;;;;;;;3.55;1.45;;;;;;;-142.37;100.00;59669.53;4956761;28;20042;-68
2022/09/05 05:08:41;;;;;;;5.00;1.05;;;;;;;-142.37;100.00;59669.53;4972925;28;20042;-68
2022/09/05 05:11:41;;;;;;;3.83;0.65;;;;;;;-142.37;100.00;59669.53;4974128;28;20030;-68
2022/09/05 05:14:15;;;;;;;1.55;1.17;;;;;;;-142.37;100.00;59669.53;4956875;28;20439;-67
2022/09/05 05:16:50;;;;;;;2.10;0.80;;;;;;;-142.37;100.00;59669.53;4956314;28;20034;-69
2022/09/05 05:19:23;;;;;;;;;;;;;;;-142.37;100.00;59669.53;4957001;28;20452;-67
2022/09/05 05:21:53;;;;;;;1.00;0.90;;;;;;;-142.37;100.00;59669.53;4956516;28;19962;-69
2022/09/05 05:24:26;;;;;;;1.45;0.80;;;;;;;-142.37;100.00;59669.53;4972525;28;20410;-68
2022/09/05 05:27:03;;;;;;;8.20;0.93;;;;;;;-142.37;100.00;59669.53;4974173;28;20031;-67
2022/09/05 05:30:00;;;;;;;2.65;1.40;;;;;;;-142.37;100.00;59669.53;4928552;28;1327471;-69
2022/09/05 05:32:38;;;;;;;5.13;1.08;;;;;;;-142.37;100.00;59669.53;4974389;28;20471;-68
2022/09/05 05:35:09;;;;;;;6.75;1.83;;;;;;;-142.37;100.00;59669.53;4956876;28;20541;-67
2022/09/05 05:37:44;;;;;;;2.45;1.10;;;;;;;-142.37;100.00;59669.53;4957114;28;20066;-67
2022/09/05 05:40:16;;;;;;;4.72;1.50;;;;;;;-142.37;100.00;59669.53;4974192;28;20137;-69
2022/09/05 05:42:44;;;;;;;4.25;1.38;;;;;;;-142.37;100.00;59669.53;4973396;28;20042;-67
2022/09/05 05:45:28;;;;;;;3.28;1.30;;;;;;;-142.37;100.00;59669.53;4956440;28;20041;-67
2022/09/05 05:48:05;;;;;;;5.88;1.50;;;;;;;-142.37;100.00;59669.53;4973802;28;20397;-68
2022/09/05 05:51:02;;;;;;;1.83;1.05;;;;;;;-142.37;100.00;59669.53;4956630;28;20053;-67
2022/09/05 05:53:52;;;;;;;6.22;1.33;;;;;;;-142.37;100.00;59669.53;4936268;28;20065;-68
2022/09/05 05:56:27;;;;;;;3.35;1.40;;;;;;;-142.37;100.00;59669.53;4974015;28;20034;-68
2022/09/05 05:58:58;;;;;;;2.47;1.40;;;;;;;-142.37;100.00;59669.53;4973521;28;20042;-68
2022/09/05 06:01:42;;;;;;;3.28;1.05;;;;;;;-142.37;100.00;59669.53;4971997;28;20038;-66
2022/09/05 06:04:32;;;;;;;3.30;1.13;;;;;;;-142.37;100.00;59669.53;4973573;28;20126;-67
2022/09/05 06:07:24;;;;;;;3.53;0.98;;;;;;;-142.37;100.00;59669.53;4971431;28;20157;-67
2022/09/05 06:10:18;;;;;;;3.45;1.02;;;;;;;-142.37;100.00;59669.53;4955485;28;20065;-67
2022/09/05 06:13:10;;;;;;;6.38;1.13;;;;;;;-142.37;100.00;59669.53;4972872;28;20221;-69
2022/09/05 06:16:06;;;;;;;3.72;1.25;;;;;;;-142.37;100.00;59669.53;4955051;28;20045;-67
2022/09/05 06:18:32;;;;;;;4.13;1.65;;;;;;;-142.37;100.00;59669.53;4972282;28;20125;-67
2022/09/05 06:21:15;;;;;;;2.40;1.00;;;;;;;-142.37;100.00;59669.53;4972038;28;20109;-67
2022/09/05 06:24:11;;;;;;;2.95;1.35;;;;;;;-142.37;100.00;59669.53;4972579;28;20118;-68
2022/09/05 06:26:44;;;;;;;2.22;1.27;;;;;;;-142.37;100.00;59669.53;4972291;28;20038;-68
2022/09/05 06:29:50;;;;;;;2.53;2.03;;;;;;;-142.37;100.00;59669.53;4973122;28;20054;-67
2022/09/05 06:32:28;;;;;;;1.33;1.05;;;;;;;-142.37;100.00;59669.53;4970946;28;20034;-67
2022/09/05 06:35:11;;;;;;;1.42;1.20;;;;;;;-142.37;100.00;59669.53;4971390;28;20492;-67
2022/09/05 06:37:45;;;;;;;2.97;1.10;;;;;;;-142.37;100.00;59669.53;4971333;28;20062;-68
2022/09/05 06:40:11;;;;;;;3.55;0.95;;;;;;;-142.37;100.00;59669.53;4972877;28;20085;-69
2022/09/05 06:42:51;;;;;;;3.97;1.00;;;;;;;-142.37;100.00;59669.53;4971316;28;20472;-67
2022/09/05 06:45:39;;;;;;;2.45;1.35;;;;;;;-142.37;100.00;59669.53;4971821;28;20062;-67
2022/09/05 06:48:19;;;;;;;1.20;0.70;;;;;;;-142.37;100.00;59669.53;4972592;28;20035;-69
2022/09/05 06:51:02;;;;;;;4.13;1.05;;;;;;;-142.37;100.00;59669.53;4955073;28;20388;-67
2022/09/05 06:54:18;;;;;;;1.45;0.95;;;;;;;-142.37;100.00;59669.53;4971583;28;20124;-67
2022/09/05 06:57:18;;;;;;;3.88;0.70;;;;;;;-142.37;100.00;59669.53;4913080;29;20036;-68
2022/09/05 07:00:02;;;;;;;2.45;1.00;;;;;;;-142.37;100.00;59669.53;4972523;28;20090;-68
2022/09/05 07:02:38;;;;;;;2.15;1.00;;;;;;;-142.37;100.00;59669.53;4972887;28;20039;-67
2022/09/05 07:05:35;;;;;;;2.72;1.10;;;;;;;-142.37;100.00;59669.53;4972654;28;20042;-66
2022/09/05 07:08:33;;;;;;;2.97;1.65;;;;;;;-142.37;100.00;59669.53;4969955;28;20145;-66
2022/09/05 07:11:07;;;;;;;3.75;0.88;;;;;;;-142.37;100.00;59669.53;4921562;28;20050;-66
2022/09/05 07:13:48;;;;;;;2.25;0.70;;;;;;;-142.37;100.00;59669.53;4955549;28;20391;-66
2022/09/05 07:16:23;;;;;;;1.20;0.70;;;;;;;-142.37;100.00;59669.53;4971221;28;20121;-66
2022/09/05 07:19:07;;;;;;;;;;;;;;;-142.37;100.00;59669.53;4971429;28;20344;-66
2022/09/05 07:21:56;;;;;;;1.17;0.55;;;;;;;-142.37;100.00;59669.53;4955001;28;19914;-66
2022/09/05 07:24:26;;;;;;;1.83;0.68;;;;;;;-142.37;100.00;59669.53;4947206;28;20494;-68
2022/09/05 07:26:55;;;;;;;1.13;0.57;;;;;;;-142.37;100.00;59669.53;4973034;28;20154;-68
2022/09/05 07:29:39;;;;;;;1.08;0.88;;;;;;;-142.37;100.00;59669.53;4972612;28;20043;-69
2022/09/05 07:32:07;;;;;;;2.53;0.80;;;;;;;-142.37;100.00;59669.53;4972641;28;20439;-66
2022/09/05 07:34:36;;;;;;;0.80;0.80;;;;;;;-142.37;100.00;59669.53;4955099;28;20031;-67
2022/09/05 07:37:16;;;;;;;1.00;0.73;;;;;;;-142.37;100.00;59669.53;4955467;28;20094;-67
2022/09/05 07:40:08;;;;;;;2.30;1.60;;;;;;;-142.37;100.00;59669.53;4954870;28;20104;-64
2022/09/05 07:43:04;;;;;;;2.75;1.20;;;;;;;-142.37;100.00;59669.53;4972849;28;20487;-68
2022/09/05 07:45:31;;;;;;;1.48;0.93;;;;;;;-142.37;100.00;59669.53;4949435;28;20074;-67
2022/09/05 07:48:15;;;;;;;1.05;0.80;;;;;;;-142.37;100.00;59669.53;4972749;28;20026;-67
2022/09/05 07:50:51;;;;;;;3.35;0.77;;;;;;;-142.37;100.00;59669.53;4972622;28;20031;-65
2022/09/05 07:53:19;;;;;;;0.85;0.80;;;;;;;-142.37;100.00;59669.53;4972453;28;20503;-66
2022/09/05 07:55:52;;;;;;;0.60;0.43;;;;;;;-142.37;100.00;59669.53;4972598;28;20031;-65
2022/09/05 07:58:21;;;;;;;2.70;1.13;;;;;;;-142.37;100.00;59669.53;4972592;28;20030;-66
2022/09/05 08:00:56;;;;;;;1.83;0.82;;;;;;;-142.37;100.00;59669.53;4955375;28;20035;-68
2022/09/05 08:03:27;;;;;;;1.02;0.70;;;;;;;-142.37;100.00;59669.53;4955257;28;20400;-66
2022/09/05 08:05:58;;;;;;;0.98;0.77;;;;;;;-142.37;100.00;59669.53;4972023;28;20038;-65
2022/09/05 08:08:31;;;;;;;1.88;0.70;;;;;;;-142.37;100.00;59669.53;4954155;28;20035;-68
2022/09/05 08:11:06;;;;;;;4.00;0.90;;;;;;;-142.37;100.00;59669.53;4954238;28;20176;-68
2022/09/05 08:13:44;;;;;;;;;;;;;;;-142.37;100.00;59669.53;4955232;28;20122;-66
2022/09/05 08:16:14;;;;;;;1.05;0.70;;;;;;;-142.37;100.00;59669.53;4972218;28;19914;-66
2022/09/05 08:19:08;;;;;;;0.85;0.73;;;;;;;-142.37;100.00;59669.53;4971946;28;20118;-66
2022/09/05 08:21:46;;;;;;;1.13;0.57;;;;;;;-142.37;100.00;59669.53;4954993;28;20122;-65
2022/09/05 08:24:35;;;;;;;3.53;1.48;;;;;;;-142.37;100.00;59669.53;4971190;28;20031;-65
2022/09/05 08:27:03;;;;;;;0.63;0.50;;;;;;;-142.37;100.00;59669.53;4971950;28;20081;-63
2022/09/05 08:29:42;;;;;;;3.22;0.60;;;;;;;-142.37;100.00;59669.53;4971699;28;20055;-63
2022/09/05 08:32:15;;;;;;;1.02;0.63;;;;;;;-142.37;100.00;59669.53;4972120;28;20027;-66
2022/09/05 08:34:53;;;;;;;1.75;0.70;;;;;;;-142.37;100.00;59669.53;4954733;28;20034;-66
2022/09/05 08:37:21;;;;;;;0.90;0.47;;;;;;;-142.37;100.00;59669.53;4954591;28;20090;-64
2022/09/05 08:40:02;;;;;;;0.98;0.60;;;;;;;-142.37;100.00;59669.53;4954299;28;20460;-65
2022/09/05 08:42:55;;;;;;;1.40;0.40;;;;;;;-142.37;100.00;59669.53;4956822;28;20038;-64
2022/09/05 08:45:25;;;;;;;5.97;0.90;;;;;;;-142.37;100.00;59669.53;4974667;28;20086;-65
2022/09/05 08:48:13;;;;;;;3.45;0.50;;;;;;;-142.37;100.00;59669.53;4958246;28;20031;-65
2022/09/05 08:51:09;;;;;;;1.60;0.60;;;;;;;-142.37;100.00;59669.53;4958263;28;20321;-65
2022/09/05 08:54:10;;;;;;;1.02;0.68;;;;;;;-142.37;100.00;59669.53;4973610;28;20408;-65
2022/09/05 08:56:48;;;;;;;0.68;0.50;;;;;;;-142.37;100.00;59669.53;4956895;28;20046;-65
2022/09/05 08:59:44;;;;;;;0.55;0.52;;;;;;;-142.37;100.00;59669.53;4974194;28;20031;-65
2022/09/05 09:02:33;;;;;;;1.50;0.70;;;;;;;-142.37;100.00;59669.53;4974590;28;20027;-64
2022/09/05 09:05:06;;;;;;;1.30;0.60;;;;;;;-142.37;100.00;59669.53;4973616;28;20055;-64
2022/09/05 09:07:39;;;;;;;3.00;0.70;;;;;;;-142.37;100.00;59669.53;4973713;28;20077;-64
2022/09/05 09:10:23;;;;;;;1.20;0.50;;;;;;;-142.37;100.00;59669.53;4973795;28;20034;-65
2022/09/05 09:13:51;;;;;;;1.48;0.85;;;;;;;-142.37;100.00;59669.53;4973919;28;20042;-65
2022/09/05 09:16:29;;;;;;;2.08;0.60;;;;;;;-142.37;100.00;59669.53;4899534;29;20134;-65
2022/09/05 09:19:07;;;;;;;2.85;0.55;;;;;;;-142.37;100.00;59669.53;4970628;28;20130;-65
2022/09/05 09:21:53;;;;;;;1.00;0.55;;;;;;;-142.37;100.00;59669.53;4974481;28;20114;-67
2022/09/05 09:24:55;;;;;;;5.63;3.42;;;;;;;-142.37;100.00;59669.53;4974526;28;20447;-65
2022/09/05 09:27:47;;;;;;;3.28;1.40;;;;;;;-142.37;100.00;59669.53;4971076;28;20484;-65
2022/09/05 09:30:13;;;;;;;1.33;1.02;;;;;;;-142.37;100.00;59669.53;4956410;28;20042;-66
2022/09/05 09:32:48;;;;;;;1.33;0.60;;;;;;;-142.37;100.00;59669.53;4973308;28;20031;-66
2022/09/05 09:35:17;;;;;;;0.80;0.73;;;;;;;-142.37;100.00;59669.53;4974404;28;20046;-65
2022/09/05 09:37:55;;;;;;;0.50;0.43;;;;;;;-142.37;100.00;59669.53;4973316;28;20030;-65
2022/09/05 09:40:29;;;;;;;6.10;2.55;;;;;;;-142.37;100.00;59669.53;4972831;28;20027;-66
2022/09/05 09:43:22;;;;;;;0.85;0.50;;;;;;;-142.37;100.00;59669.53;4972277;28;20397;-66
2022/09/05 09:46:33;;;;;;;2.03;0.52;;;;;;;-142.37;100.00;59669.53;4974074;28;20443;-64
2022/09/05 09:49:10;;;;;;;1.95;0.45;;;;;;;-142.37;100.00;59669.53;4966908;28;20047;-66
2022/09/05 09:51:51;;;;;;;0.85;0.60;;;;;;;-142.37;100.00;59669.53;4972280;28;20472;-64
2022/09/05 09:54:42;;;;;;;2.53;1.10;;;;;;;-142.37;100.00;59669.53;4972148;28;20038;-64
2022/09/05 09:57:33;;;;;;;2.60;0.60;;;;;;;-142.37;100.00;59669.53;4937531;28;20093;-65
2022/09/05 10:00:40;;;;;;;0.73;0.73;;;;;;;-142.37;100.00;59669.53;4956974;28;20182;-63
2022/09/05 10:03:38;;;;;;;0.90;0.80;;;;;;;-142.37;100.00;59669.53;4947900;28;20127;-66
2022/09/05 10:06:52;;;;;;;1.30;1.20;;;;;;;-142.37;100.00;59669.53;4937833;28;20054;-65
2022/09/05 10:09:36;;;;;;;0.75;0.40;;;;;;;-142.37;100.00;59669.53;4956218;28;20121;-66
2022/09/05 10:12:34;;;;;;;0.80;0.57;;;;;;;-142.37;100.00;59669.53;4972470;28;20069;-64
2022/09/05 10:15:08;;;;;;;2.17;0.60;;;;;;;-142.37;100.00;59669.53;4955267;28;20588;-66
2022/09/05 10:17:56;;;;;;;1.83;0.65;;;;;;;-142.37;100.00;59669.53;4972534;28;20451;-65
2022/09/05 10:20:48;;;;;;;1.98;0.75;;;;;;;-142.37;100.00;59669.53;4956106;28;20038;-66
2022/09/05 10:23:55;;;;;;;1.10;0.70;;;;;;;-142.37;100.00;59669.53;4955567;28;20155;-65
2022/09/05 10:26:38;;;;;;;1.50;1.30;;;;;;;-142.37;100.00;59669.53;4924944;28;20039;-65
2022/09/05 10:29:09;;;;;;;0.60;0.28;;;;;;;-142.37;100.00;59669.53;4971354;28;20054;-65
2022/09/05 10:31:55;;;;;;;0.43;0.43;;;;;;;-142.37;100.00;59669.53;4954802;28;20113;-65
2022/09/05 10:34:29;;;;;;;0.45;0.43;;;;;;;-142.37;100.00;59669.53;4955491;28;20112;-63
2022/09/05 10:37:02;;;;;;;0.60;0.60;;;;;;;-142.37;100.00;59669.53;4973188;28;20151;-64
2022/09/05 10:39:34;;;;;;;0.73;0.50;;;;;;;-142.37;100.00;59669.53;4973277;28;20070;-64
2022/09/05 10:42:09;;;;;;;1.50;0.57;;;;;;;-142.37;100.00;59669.53;4972758;28;20050;-61
2022/09/05 10:44:45;;;;;;;2.35;0.50;;;;;;;-142.37;100.00;59669.53;4972049;28;20035;-67
2022/09/05 10:47:32;;;;;;;1.70;0.65;;;;;;;-142.37;100.00;59669.53;4972538;28;20072;-68
2022/09/05 10:50:17;;;;;;;0.60;0.60;;;;;;;-142.37;100.00;59669.53;4970833;28;20041;-64
2022/09/05 10:53:00;;;;;;;;;;;;;;;-142.37;100.00;59669.53;4972357;28;20037;-65
2022/09/05 10:55:42;;;;;;;1.85;0.93;;;;;;;-142.37;100.00;59669.53;4971854;28;19918;-63
2022/09/05 10:59:03;;;;;;;1.90;1.20;;;;;;;-142.37;100.00;59669.53;4972510;28;20042;-62
2022/09/05 11:01:40;;;;;;;1.90;0.40;;;;;;;-142.37;100.00;59669.53;4939676;28;20411;-63
2022/09/05 11:04:41;;;;;;;1.42;0.70;;;;;;;-142.37;100.00;59669.53;4972986;28;20101;-64
2022/09/05 11:07:14;;;;;;;0.30;0.30;;;;;;;-142.37;100.00;59669.53;4971098;28;20035;-64
2022/09/05 11:10:02;;;;;;;0.82;0.47;;;;;;;-142.37;100.00;59669.53;4972733;28;20067;-63
2022/09/05 11:12:48;;;;;;;2.03;0.88;;;;;;;-142.37;100.00;59669.53;4954950;28;20498;-63
2022/09/05 11:15:37;;;;;;;0.80;0.70;;;;;;;-142.37;100.00;59669.53;4971063;28;20031;-64
2022/09/05 11:18:14;;;;;;;0.90;0.63;;;;;;;-142.37;100.00;59669.53;4935520;28;20440;-63
2022/09/05 11:20:46;;;;;;;1.73;0.40;;;;;;;-142.37;100.00;59669.53;4972771;28;20464;-62
2022/09/05 11:23:36;;;;;;;1.77;0.50;;;;;;;-142.37;100.00;59669.53;4972362;28;20096;-63
2022/09/05 11:26:24;;;;;;;0.65;0.40;;;;;;;-142.37;100.00;59669.53;4972610;28;20049;-65
2022/09/05 11:29:04;;;;;;;1.23;0.80;;;;;;;-142.37;100.00;59669.53;4972495;28;20514;-63
2022/09/05 11:31:53;;;;;;;3.58;0.50;;;;;;;-142.37;100.00;59669.53;4955541;28;20451;-62
2022/09/05 11:34:38;;;;;;;1.55;0.60;;;;;;;-142.37;100.00;59669.53;4943607;28;20042;-65
2022/09/05 11:37:20;;;;;;;0.75;0.40;;;;;;;-142.37;100.00;59669.53;4971852;28;20081;-64
2022/09/05 11:40:00;;;;;;;1.17;0.50;;;;;;;-142.37;100.00;59669.53;4955070;28;20514;-61
2022/09/05 11:42:55;;;;;;;0.65;0.30;;;;;;;-142.37;100.00;59669.53;4972450;28;20106;-62
2022/09/05 11:45:55;;;;;;;0.60;0.50;;;;;;;-142.37;100.00;59669.53;4967203;28;20082;-63
2022/09/05 11:48:35;;;;;;;3.92;0.60;;;;;;;-142.37;100.00;59669.53;4971263;28;20069;-64
2022/09/05 11:51:22;;;;;;;1.55;0.80;;;;;;;-142.37;100.00;59669.53;4971533;28;20086;-65
2022/09/05 11:54:12;;;;;;;2.50;0.50;;;;;;;-142.37;100.00;59669.53;4972494;28;20031;-64
2022/09/05 11:56:57;;;;;;;1.60;0.40;;;;;;;-142.37;100.00;59669.53;4955092;28;20471;-64
2022/09/05 12:00:08;;;;;;;0.80;0.52;;;;;;;-142.37;100.00;59669.53;4972268;28;20031;-64
2022/09/05 12:02:58;;;;;;;1.25;0.75;;;;;;;-142.37;100.00;59669.53;4971303;28;20534;-63
2022/09/05 12:05:43;;;;;;;0.40;0.40;;;;;;;-142.37;100.00;59669.53;4972746;28;20066;-63
2022/09/05 12:08:41;;;;;;;1.08;0.40;;;;;;;-142.37;100.00;59669.53;4972375;28;20511;-63
2022/09/05 12:11:28;;;;;;;0.73;0.50;;;;;;;-142.37;100.00;59669.53;4971115;28;20162;-64
2022/09/05 12:14:06;;;;;;;1.25;0.55;;;;;;;-142.37;100.00;59669.53;4970123;28;20093;-63
2022/09/05 12:16:51;;;;;;;0.93;0.60;;;;;;;-142.37;100.00;59669.53;4971009;28;20042;-64
2022/09/05 12:19:29;;;;;;;0.50;0.50;;;;;;;-142.37;100.00;59669.53;4975476;28;20511;-64
2022/09/05 12:22:07;;;;;;;1.85;1.15;;;;;;;-142.37;100.00;59669.53;4974525;28;20121;-63
2022/09/05 12:25:09;;;;;;;0.68;0.45;;;;;;;-142.37;100.00;59669.53;4976081;28;20043;-63